Portada
METAR-TAF:

METAR-TAF

Aeroports :

Cayo Largo del Sur, Cuba

latitud: 21-37N, longitud: 081-33W, altitud: 2 m

Observació

L'informe es va fer fa 51 minuts, a les 23:05 UTC
Vent 6 kt del Sud, variant entre Est/Sud-Est i Sud-Oest
Temperatura 27°C
Humitat 66%
Pressió 1013 hPa

METAR: MUCL 152305Z AUTO 17006KT 120V220 27/20 Q1013

Hora: 19:56 (23:56 UTC)

Pronòstic

L'informe es va fer fa 6 hores i 56 minuts, a les 17:00 UTC
Pronòstic vàlid del 15 a les 18 UTC al 16 a les 06 UTC
Vent 12 kt del Est/Sud-Est
Visibilitat: 9000 m
Núvols disperses a una alçada de 2000 ft
Evolucionant progressivament
l' 16 a les 00 UTC al 16 a les 02 UTC
Vent 3 kt amb direcció variable

TAF: MUCL 151700Z 1518/1606 12012KT 9000 SCT020 BECMG 1600/1602 VRB03KT

Observacions i pronòstics meteorològics de més de 4000 aeroports (METAR i TAF).

Les estacions disponibles són els punts grocs i vermells al mapa.

Posi el ratolí al punt desitjat per veure el nom de l'estació.

Feu clic per veure les observacions i els pronòstics meteorològics.

Per canviar el mapa: feu clic els botons verds amb una creu de color negre per apropar; al botó verd amb un guió per allunyar la imatge; o en les fletxes verdes per a mapes adjacents.


METAR-TAF: